createdAt,value
2019-06-15T00:01:42.265Z,24.90
2019-06-15T00:04:10.259Z,24.80
2019-06-15T00:06:38.243Z,24.70
2019-06-15T00:09:07.233Z,25.00
2019-06-15T00:11:35.260Z,24.60
2019-06-15T00:14:03.316Z,24.80
2019-06-15T00:16:31.320Z,24.80
2019-06-15T00:18:59.318Z,24.70
2019-06-15T00:21:27.232Z,24.90
2019-06-15T00:23:55.256Z,24.80
2019-06-15T00:26:23.152Z,24.60
2019-06-15T00:28:51.136Z,24.70
2019-06-15T00:31:19.288Z,24.80
2019-06-15T00:33:47.250Z,24.70
2019-06-15T00:36:15.293Z,24.70
2019-06-15T00:38:43.202Z,24.60
2019-06-15T00:41:11.109Z,24.80
2019-06-15T00:43:39.019Z,24.60
2019-06-15T00:46:07.099Z,24.50
2019-06-15T00:48:35.017Z,24.70
2019-06-15T00:51:02.968Z,24.70
2019-06-15T00:53:31.039Z,24.70
2019-06-15T00:55:59.019Z,24.70
2019-06-15T00:58:26.942Z,24.70
2019-06-15T01:00:54.913Z,24.50
2019-06-15T01:03:22.873Z,24.40
2019-06-15T01:05:50.803Z,24.40
2019-06-15T01:08:18.757Z,24.30
2019-06-15T01:10:46.720Z,24.50
2019-06-15T01:13:14.698Z,24.40
2019-06-15T01:15:42.630Z,24.40
2019-06-15T01:18:10.630Z,24.40
2019-06-15T01:20:38.499Z,24.30
2019-06-15T01:23:06.384Z,24.40
2019-06-15T01:25:34.434Z,24.10
2019-06-15T01:28:02.526Z,24.30
2019-06-15T01:30:30.492Z,24.40
2019-06-15T01:32:58.383Z,24.30
2019-06-15T01:35:26.271Z,24.40
2019-06-15T01:37:54.183Z,24.30
2019-06-15T01:40:22.494Z,24.30
2019-06-15T01:42:50.428Z,24.30
2019-06-15T01:45:23.936Z,24.50
2019-06-15T01:47:51.920Z,24.40
2019-06-15T01:50:20.023Z,24.30
2019-06-15T01:52:47.969Z,24.30
2019-06-15T01:55:20.870Z,24.20
2019-06-15T01:57:45.631Z,24.30
2019-06-15T02:00:18.673Z,24.50
2019-06-15T02:02:46.572Z,24.40
2019-06-15T02:05:14.895Z,24.30
2019-06-15T02:07:42.932Z,24.20
2019-06-15T02:10:11.032Z,24.10
2019-06-15T02:12:39.064Z,24.00
2019-06-15T02:15:07.453Z,24.20
2019-06-15T02:17:35.493Z,24.20
2019-06-15T02:20:03.534Z,24.50
2019-06-15T02:22:31.583Z,24.60
2019-06-15T02:24:59.628Z,24.50
2019-06-15T02:27:27.583Z,24.50
2019-06-15T02:29:55.507Z,24.50
2019-06-15T02:32:23.523Z,24.50
2019-06-15T02:34:51.422Z,24.60
2019-06-15T02:37:19.309Z,24.40
2019-06-15T02:39:47.265Z,24.40
2019-06-15T02:42:15.377Z,24.10
2019-06-15T02:44:43.436Z,24.10
2019-06-15T02:47:11.471Z,24.30
2019-06-15T02:49:39.486Z,24.20
2019-06-15T02:52:07.465Z,24.00
2019-06-15T02:54:35.405Z,24.30
2019-06-15T02:57:03.413Z,24.30
2019-06-15T02:59:32.450Z,24.00
2019-06-15T03:02:00.489Z,23.90
2019-06-15T03:04:28.471Z,24.00
2019-06-15T03:06:56.475Z,24.00
2019-06-15T03:09:24.804Z,23.70
2019-06-15T03:11:52.767Z,23.70
2019-06-15T03:14:20.874Z,23.80
2019-06-15T03:16:48.887Z,23.90
2019-06-15T03:19:16.760Z,23.90
2019-06-15T03:21:44.753Z,23.80
2019-06-15T03:24:12.750Z,23.80
2019-06-15T03:26:40.647Z,23.70
2019-06-15T03:29:08.585Z,23.60
2019-06-15T03:31:36.626Z,23.50
2019-06-15T03:34:04.641Z,23.60
2019-06-15T03:36:32.586Z,23.60
2019-06-15T03:39:00.472Z,23.70
2019-06-15T03:41:28.553Z,23.80
2019-06-15T03:43:56.446Z,23.70
2019-06-15T03:46:24.446Z,23.80
2019-06-15T03:48:52.376Z,23.60
2019-06-15T03:51:20.311Z,23.80
2019-06-15T03:53:48.287Z,23.70
2019-06-15T03:56:21.557Z,23.70
2019-06-15T03:58:45.887Z,23.80
2019-06-15T04:01:19.878Z,23.90
2019-06-15T04:03:47.792Z,23.90
2019-06-15T04:06:15.737Z,23.70
2019-06-15T04:08:43.659Z,23.90
2019-06-15T04:11:11.621Z,23.90
2019-06-15T04:13:39.553Z,23.90
2019-06-15T04:16:07.511Z,24.00
2019-06-15T04:18:35.402Z,24.10
2019-06-15T04:21:03.306Z,24.00
2019-06-15T04:23:31.163Z,24.10
2019-06-15T04:25:59.159Z,24.30
2019-06-15T04:28:27.113Z,24.30
2019-06-15T04:30:55.044Z,24.40
2019-06-15T04:33:23.017Z,24.30
2019-06-15T04:35:50.946Z,24.40
2019-06-15T04:38:18.988Z,24.30
2019-06-15T04:40:46.939Z,24.30
2019-06-15T04:43:14.903Z,24.30
2019-06-15T04:45:42.815Z,24.30
2019-06-15T04:48:10.802Z,24.40
2019-06-15T04:50:38.772Z,24.60
2019-06-15T04:53:06.679Z,24.50
2019-06-15T04:55:34.598Z,24.50
2019-06-15T04:58:02.545Z,24.50
2019-06-15T05:00:55.156Z,24.70
2019-06-15T05:03:23.138Z,24.80
2019-06-15T05:05:51.055Z,24.80
2019-06-15T05:08:19.046Z,24.90
2019-06-15T05:10:47.032Z,25.10
2019-06-15T05:13:15.102Z,24.90
2019-06-15T05:15:43.082Z,25.00
2019-06-15T05:18:11.048Z,25.00
2019-06-15T05:20:39.050Z,25.10
2019-06-15T05:23:07.115Z,25.00
2019-06-15T05:25:35.098Z,25.00
2019-06-15T05:28:03.035Z,24.90
2019-06-15T05:30:31.060Z,25.10
2019-06-15T05:32:58.976Z,25.30
2019-06-15T05:35:26.923Z,25.30
2019-06-15T05:37:54.974Z,25.30
2019-06-15T05:40:22.893Z,25.30
2019-06-15T05:42:50.962Z,25.40
2019-06-15T05:45:19.188Z,25.40
2019-06-15T05:47:47.211Z,25.50
2019-06-15T05:50:15.164Z,25.30
2019-06-15T05:52:43.108Z,25.40
2019-06-15T05:55:11.218Z,25.40
2019-06-15T05:57:39.243Z,25.50
2019-06-15T06:00:07.587Z,25.50
2019-06-15T06:02:35.631Z,25.70
2019-06-15T06:05:04.157Z,25.40
2019-06-15T06:07:32.156Z,25.60
2019-06-15T06:10:00.109Z,25.50
2019-06-15T06:12:28.170Z,25.60
2019-06-15T06:14:56.043Z,25.70
2019-06-15T06:17:24.134Z,25.60
2019-06-15T06:19:52.021Z,25.70
2019-06-15T06:22:19.903Z,25.70
2019-06-15T06:24:47.841Z,25.70
2019-06-15T06:27:15.762Z,25.50
2019-06-15T06:29:43.711Z,25.80
2019-06-15T06:32:11.629Z,25.80
2019-06-15T06:34:39.548Z,26.10
2019-06-15T06:37:07.522Z,25.80
2019-06-15T06:39:35.428Z,25.90
2019-06-15T06:42:03.388Z,26.10
2019-06-15T06:44:31.347Z,26.10
2019-06-15T06:46:59.265Z,26.30
2019-06-15T06:49:27.157Z,26.50
2019-06-15T06:51:55.108Z,26.30
2019-06-15T06:54:23.009Z,26.40
2019-06-15T06:56:50.915Z,26.30
2019-06-15T06:59:18.907Z,26.50
2019-06-15T07:01:47.098Z,26.60
2019-06-15T07:04:15.005Z,26.70
2019-06-15T07:06:43.198Z,26.70
2019-06-15T07:09:11.143Z,27.00
2019-06-15T07:11:39.177Z,26.80
2019-06-15T07:14:07.215Z,26.70
2019-06-15T07:16:35.223Z,26.50
2019-06-15T07:19:03.570Z,26.60
2019-06-15T07:21:31.607Z,26.60
2019-06-15T07:23:59.670Z,26.70
2019-06-15T07:26:27.643Z,26.70
2019-06-15T07:28:55.599Z,27.00
2019-06-15T07:31:23.511Z,26.90
2019-06-15T07:33:51.785Z,26.80
2019-06-15T07:36:19.954Z,26.90
2019-06-15T07:38:47.983Z,27.30
2019-06-15T07:41:15.904Z,27.00
2019-06-15T07:43:43.827Z,26.80
2019-06-15T07:46:11.765Z,26.90
2019-06-15T07:48:39.668Z,26.90
2019-06-15T07:51:07.605Z,26.90
2019-06-15T07:53:36.817Z,26.70
2019-06-15T07:56:04.872Z,26.90
2019-06-15T07:58:32.880Z,27.00
2019-06-15T08:01:00.759Z,27.10
2019-06-15T08:03:28.831Z,27.10
2019-06-15T08:05:56.872Z,27.10
2019-06-15T08:08:25.638Z,26.90
2019-06-15T08:10:53.645Z,26.90
2019-06-15T08:13:21.565Z,27.00
2019-06-15T08:15:49.627Z,26.80
2019-06-15T08:18:17.516Z,26.90
2019-06-15T08:20:45.424Z,27.30
2019-06-15T08:23:13.355Z,27.40
2019-06-15T08:25:41.327Z,27.40
2019-06-15T08:28:09.346Z,27.40
2019-06-15T08:30:40.089Z,27.40
2019-06-15T08:33:08.032Z,27.60
2019-06-15T08:35:35.989Z,27.70
2019-06-15T08:38:03.990Z,27.40
2019-06-15T08:40:31.939Z,27.50
2019-06-15T08:42:59.960Z,27.40
2019-06-15T08:45:27.929Z,27.50
2019-06-15T08:47:55.975Z,27.00
2019-06-15T08:50:24.061Z,26.80
2019-06-15T08:52:52.167Z,27.10
2019-06-15T08:55:20.226Z,27.30
2019-06-15T08:57:48.244Z,27.50
2019-06-15T09:00:16.805Z,27.60
2019-06-15T09:02:44.840Z,28.00
2019-06-15T09:05:15.713Z,27.80
2019-06-15T09:07:44.048Z,27.70
2019-06-15T09:10:12.176Z,27.80
2019-06-15T09:12:40.188Z,27.70
2019-06-15T09:15:12.010Z,27.80
2019-06-15T09:17:42.266Z,27.70
2019-06-15T09:20:10.857Z,27.50
2019-06-15T09:22:39.119Z,27.60
2019-06-15T09:25:10.242Z,27.90
2019-06-15T09:27:38.293Z,27.70
2019-06-15T09:30:06.603Z,27.90
2019-06-15T09:32:34.564Z,28.00
2019-06-15T09:35:02.612Z,28.00
2019-06-15T09:37:30.803Z,27.60
2019-06-15T09:39:58.857Z,27.50
2019-06-15T09:42:26.875Z,27.70
2019-06-15T09:44:54.877Z,28.00
2019-06-15T09:47:22.861Z,28.40
2019-06-15T09:49:50.768Z,28.30
2019-06-15T09:52:18.705Z,28.50
2019-06-15T09:54:46.777Z,28.90
2019-06-15T09:57:14.714Z,28.80
2019-06-15T09:59:42.714Z,29.20
2019-06-15T10:02:10.723Z,28.90
2019-06-15T10:04:38.754Z,29.00
2019-06-15T10:07:06.651Z,29.50
2019-06-15T10:09:34.585Z,29.50
2019-06-15T10:12:02.605Z,29.70
2019-06-15T10:14:30.848Z,30.10
2019-06-15T10:16:58.867Z,29.70
2019-06-15T10:19:26.873Z,29.90
2019-06-15T10:21:54.770Z,30.20
2019-06-15T10:24:22.767Z,29.60
2019-06-15T10:26:50.819Z,29.90
2019-06-15T10:29:18.853Z,30.30
2019-06-15T10:31:46.783Z,30.30
2019-06-15T10:34:14.668Z,29.50
2019-06-15T10:36:42.700Z,29.60
2019-06-15T10:39:10.684Z,29.90
2019-06-15T10:41:38.648Z,30.60
2019-06-15T10:44:06.588Z,30.70
2019-06-15T10:46:34.590Z,31.00
2019-06-15T10:49:02.778Z,30.90
2019-06-15T10:51:30.843Z,31.40
2019-06-15T10:53:59.906Z,31.60
2019-06-15T10:56:28.154Z,31.70
2019-06-15T10:58:56.132Z,31.50
2019-06-15T11:01:24.088Z,31.10
2019-06-15T11:03:52.663Z,30.70
2019-06-15T11:06:20.672Z,29.90
2019-06-15T11:08:52.338Z,29.50
2019-06-15T11:11:22.030Z,29.10
2019-06-15T11:13:50.728Z,29.30
2019-06-15T11:16:19.191Z,28.90
2019-06-15T11:18:47.288Z,28.70
2019-06-15T11:21:15.317Z,28.60
2019-06-15T11:23:43.215Z,28.70
2019-06-15T11:26:11.309Z,28.90
2019-06-15T11:28:39.356Z,29.10
2019-06-15T11:31:07.435Z,28.70
2019-06-15T11:33:35.555Z,29.10
2019-06-15T11:36:03.570Z,29.10
2019-06-15T11:38:31.639Z,29.20
2019-06-15T11:40:59.523Z,29.40
2019-06-15T11:43:27.452Z,29.20
2019-06-15T11:45:55.514Z,29.70
2019-06-15T11:48:23.498Z,30.10
2019-06-15T11:50:51.508Z,30.20
2019-06-15T11:53:19.534Z,30.20
2019-06-15T11:55:47.590Z,30.40
2019-06-15T11:58:15.700Z,30.80
2019-06-15T12:00:43.650Z,31.30
2019-06-15T12:03:11.662Z,31.90
2019-06-15T12:05:39.658Z,32.20
2019-06-15T12:08:07.671Z,32.70
2019-06-15T12:10:35.565Z,32.60
2019-06-15T12:13:03.561Z,32.80
2019-06-15T12:15:31.691Z,32.70
2019-06-15T12:17:59.712Z,32.70
2019-06-15T12:20:27.948Z,33.10
2019-06-15T12:22:55.952Z,32.50
2019-06-15T12:25:23.986Z,32.10
2019-06-15T12:27:52.795Z,31.70
2019-06-15T12:30:24.781Z,31.60
2019-06-15T12:32:52.792Z,30.40
2019-06-15T12:35:20.700Z,30.70
2019-06-15T12:37:48.721Z,30.30
2019-06-15T12:40:17.031Z,30.30
2019-06-15T12:42:45.036Z,30.50
2019-06-15T12:45:13.172Z,30.50
2019-06-15T12:47:41.121Z,30.80
2019-06-15T12:50:10.647Z,30.80
2019-06-15T12:52:38.631Z,30.20
2019-06-15T12:55:06.648Z,30.80
2019-06-15T12:57:34.661Z,31.00
2019-06-15T13:00:02.707Z,30.40
2019-06-15T13:02:30.848Z,31.20
2019-06-15T13:04:58.826Z,31.30
2019-06-15T13:07:26.775Z,30.70
2019-06-15T13:09:54.722Z,30.70
2019-06-15T13:12:22.640Z,30.50
2019-06-15T13:14:50.567Z,29.80
2019-06-15T13:17:18.493Z,29.60
2019-06-15T13:19:46.576Z,29.60
2019-06-15T13:22:14.497Z,29.60
2019-06-15T13:24:42.425Z,29.80
2019-06-15T13:27:10.756Z,29.70
2019-06-15T13:29:39.581Z,29.20
2019-06-15T13:32:09.790Z,29.20
2019-06-15T13:34:37.797Z,29.30
2019-06-15T13:37:05.842Z,29.50
2019-06-15T13:39:35.701Z,29.30
2019-06-15T13:42:03.787Z,29.60
2019-06-15T13:44:31.855Z,29.60
2019-06-15T13:46:59.794Z,29.30
2019-06-15T13:49:27.799Z,29.40
2019-06-15T13:51:55.791Z,29.40
2019-06-15T13:54:23.705Z,29.90
2019-06-15T13:56:51.800Z,29.40
2019-06-15T13:59:19.904Z,29.80
2019-06-15T14:01:48.199Z,29.70
2019-06-15T14:04:16.151Z,30.00
2019-06-15T14:06:44.175Z,29.40
2019-06-15T14:09:12.298Z,29.20
2019-06-15T14:11:40.405Z,28.90
2019-06-15T14:14:08.625Z,29.10
2019-06-15T14:16:36.711Z,28.70
2019-06-15T14:19:04.893Z,28.90
2019-06-15T14:21:33.072Z,28.70
2019-06-15T14:24:01.218Z,28.70
2019-06-15T14:26:29.165Z,29.00
2019-06-15T14:28:57.039Z,28.50
2019-06-15T14:31:25.007Z,28.70
2019-06-15T14:33:52.953Z,28.20
2019-06-15T14:36:20.865Z,28.40
2019-06-15T14:38:48.757Z,28.30
2019-06-15T14:41:16.669Z,28.90
2019-06-15T14:43:44.673Z,28.70
2019-06-15T14:46:12.645Z,28.50
2019-06-15T14:48:40.629Z,29.00
2019-06-15T14:51:08.577Z,29.60
2019-06-15T14:53:38.812Z,28.90
2019-06-15T14:56:06.850Z,28.80
2019-06-15T14:58:36.590Z,28.50
2019-06-15T15:01:06.452Z,28.90
2019-06-15T15:03:37.398Z,28.50
2019-06-15T15:06:06.228Z,28.50
2019-06-15T15:08:36.533Z,28.40
2019-06-15T15:11:03.779Z,28.60
2019-06-15T15:13:31.795Z,28.70
2019-06-15T15:15:59.746Z,28.30
2019-06-15T15:18:27.678Z,28.20
2019-06-15T15:20:56.477Z,28.70
2019-06-15T15:23:24.701Z,28.50
2019-06-15T15:25:52.672Z,28.30
2019-06-15T15:28:47.164Z,28.80
2019-06-15T15:30:50.878Z,28.90
2019-06-15T15:33:18.936Z,28.80
2019-06-15T15:35:46.866Z,28.70
2019-06-15T15:38:14.869Z,28.10
2019-06-15T15:40:42.743Z,28.00
2019-06-15T15:43:10.713Z,28.00
2019-06-15T15:45:38.617Z,27.90
2019-06-15T15:48:07.001Z,27.70
2019-06-15T15:50:37.033Z,27.40
2019-06-15T15:53:04.940Z,27.60
2019-06-15T15:55:33.081Z,27.30
2019-06-15T15:58:01.025Z,26.60
2019-06-15T16:00:31.404Z,26.70
2019-06-15T16:02:59.344Z,26.80
2019-06-15T16:05:27.341Z,26.60
2019-06-15T16:07:56.965Z,26.30
2019-06-15T16:10:26.636Z,26.50
2019-06-15T16:12:56.803Z,26.00
2019-06-15T16:15:26.474Z,25.60
2019-06-15T16:18:13.354Z,26.00
2019-06-15T16:20:41.362Z,25.40
2019-06-15T16:23:09.251Z,25.90
2019-06-15T16:25:37.579Z,25.80
2019-06-15T16:28:07.115Z,26.00
2019-06-15T16:30:59.903Z,26.10
2019-06-15T16:33:07.609Z,26.00
2019-06-15T16:35:36.103Z,26.00
2019-06-15T16:38:06.900Z,26.10
2019-06-15T16:40:37.936Z,26.10
2019-06-15T16:43:07.109Z,26.20
2019-06-15T16:45:34.813Z,26.00
2019-06-15T16:48:02.712Z,26.20
2019-06-15T16:50:30.637Z,26.10
2019-06-15T16:52:58.567Z,26.30
2019-06-15T16:55:26.583Z,26.20
2019-06-15T16:57:56.621Z,26.10
2019-06-15T17:00:24.305Z,26.10
2019-06-15T17:02:52.279Z,26.30
2019-06-15T17:05:23.150Z,26.10
2019-06-15T17:07:51.033Z,26.10
2019-06-15T17:10:22.223Z,26.10
2019-06-15T17:12:50.269Z,26.30
2019-06-15T17:15:18.312Z,26.10
2019-06-15T17:17:46.299Z,26.20
2019-06-15T17:20:14.327Z,26.10
2019-06-15T17:22:42.302Z,26.30
2019-06-15T17:25:10.604Z,26.10
2019-06-15T17:27:38.605Z,26.30
2019-06-15T17:30:07.226Z,26.40
2019-06-15T17:32:36.971Z,26.10
2019-06-15T17:35:06.169Z,25.50
2019-06-15T17:37:36.358Z,25.20
2019-06-15T17:40:04.199Z,25.20
2019-06-15T17:42:32.140Z,25.50
2019-06-15T17:45:00.142Z,25.50
2019-06-15T17:47:28.257Z,25.40
2019-06-15T17:49:56.320Z,25.40
2019-06-15T17:52:26.358Z,25.70
2019-06-15T17:54:56.089Z,25.50
2019-06-15T17:57:23.583Z,25.50
2019-06-15T17:59:51.532Z,25.30
2019-06-15T18:02:19.450Z,24.80
2019-06-15T18:04:47.637Z,24.80
2019-06-15T18:07:16.816Z,24.90
2019-06-15T18:09:46.598Z,24.70
2019-06-15T18:12:16.298Z,24.30
2019-06-15T18:14:46.392Z,24.50
2019-06-15T18:17:17.023Z,24.40
2019-06-15T18:19:43.606Z,24.40
2019-06-15T18:22:11.538Z,24.20
2019-06-15T18:24:39.533Z,24.30
2019-06-15T18:27:09.648Z,24.20
2019-06-15T18:29:37.086Z,24.40
2019-06-15T18:32:06.418Z,24.40
2019-06-15T18:34:36.702Z,24.20
2019-06-15T18:37:04.325Z,24.30
2019-06-15T18:39:32.386Z,24.50
2019-06-15T18:42:00.301Z,24.00
2019-06-15T18:44:28.266Z,23.90
2019-06-15T18:46:56.500Z,24.20
2019-06-15T18:49:26.829Z,24.10
2019-06-15T18:51:56.572Z,24.30
2019-06-15T18:54:23.816Z,23.80
2019-06-15T18:56:51.793Z,24.00
2019-06-15T18:59:19.767Z,24.20
2019-06-15T19:01:47.897Z,23.90
2019-06-15T19:04:24.580Z,23.60
2019-06-15T19:06:46.727Z,23.20
2019-06-15T19:09:16.245Z,23.20
2019-06-15T19:11:44.306Z,23.20
2019-06-15T19:14:12.235Z,22.90
2019-06-15T19:16:40.214Z,23.20
2019-06-15T19:19:09.214Z,23.20
2019-06-15T19:21:37.491Z,23.20
2019-06-15T19:24:07.260Z,22.80
2019-06-15T19:26:37.418Z,23.10
2019-06-15T19:29:06.490Z,23.10
2019-06-15T19:31:36.685Z,23.20
2019-06-15T19:34:06.596Z,23.20
2019-06-15T19:36:36.466Z,23.20
2019-06-15T19:39:06.238Z,23.40
2019-06-15T19:41:34.695Z,23.30
2019-06-15T19:44:02.713Z,23.40
2019-06-15T19:46:30.797Z,23.30
2019-06-15T19:48:58.804Z,23.50
2019-06-15T19:51:28.974Z,23.40
2019-06-15T19:53:56.659Z,23.60
2019-06-15T19:56:26.023Z,23.50
2019-06-15T19:58:56.379Z,23.50
2019-06-15T20:01:26.089Z,23.50
2019-06-15T20:03:53.509Z,23.20
2019-06-15T20:06:21.577Z,23.00
2019-06-15T20:08:49.514Z,23.20
2019-06-15T20:11:17.600Z,23.10
2019-06-15T20:13:47.391Z,23.10
2019-06-15T20:16:16.606Z,23.10
2019-06-15T20:18:46.582Z,23.30
2019-06-15T20:21:14.278Z,23.10
2019-06-15T20:23:42.220Z,23.00
2019-06-15T20:26:10.226Z,22.80
2019-06-15T20:28:38.162Z,22.90
2019-06-15T20:31:06.587Z,23.00
2019-06-15T20:33:37.018Z,23.10
2019-06-15T20:36:06.653Z,23.10
2019-06-15T20:38:36.361Z,23.10
2019-06-15T20:41:04.139Z,23.10
2019-06-15T20:43:32.167Z,22.70
2019-06-15T20:46:00.241Z,22.70
2019-06-15T20:48:28.329Z,22.80
2019-06-15T20:50:56.823Z,22.40
2019-06-15T20:53:25.087Z,22.30
2019-06-15T20:55:53.065Z,22.20
2019-06-15T20:58:21.060Z,22.10
2019-06-15T21:00:49.040Z,21.90
2019-06-15T21:03:17.169Z,22.00
2019-06-15T21:05:47.379Z,22.00
2019-06-15T21:08:16.648Z,22.00
2019-06-15T21:10:46.390Z,22.00
2019-06-15T21:13:16.752Z,22.00
2019-06-15T21:15:47.376Z,21.90
2019-06-15T21:18:15.328Z,22.10
2019-06-15T21:20:43.271Z,22.00
2019-06-15T21:23:11.358Z,22.00
2019-06-15T21:25:39.427Z,22.00
2019-06-15T21:28:07.481Z,22.10
2019-06-15T21:30:36.936Z,21.80
2019-06-15T21:33:07.088Z,21.70
2019-06-15T21:35:48.479Z,21.80
2019-06-15T21:38:06.881Z,21.60
2019-06-15T21:40:36.845Z,21.80
2019-06-15T21:43:06.816Z,21.80
2019-06-15T21:45:36.579Z,21.60
2019-06-15T21:48:03.885Z,21.40
2019-06-15T21:50:36.102Z,21.30
2019-06-15T21:53:03.225Z,21.40
2019-06-15T21:55:31.177Z,21.40
2019-06-15T21:57:59.107Z,21.50
2019-06-15T22:00:37.090Z,21.40
2019-06-15T22:03:05.217Z,21.30
2019-06-15T22:05:33.390Z,21.30
2019-06-15T22:08:01.364Z,21.30
2019-06-15T22:10:29.340Z,21.30
2019-06-15T22:12:57.335Z,21.30
2019-06-15T22:15:26.588Z,21.40
2019-06-15T22:17:54.740Z,21.20
2019-06-15T22:20:22.680Z,21.20
2019-06-15T22:22:50.672Z,21.10
2019-06-15T22:25:18.731Z,20.80
2019-06-15T22:27:46.904Z,20.90
2019-06-15T22:30:16.987Z,20.60
2019-06-15T22:32:47.085Z,20.30
2019-06-15T22:35:16.457Z,20.20
2019-06-15T22:37:46.603Z,20.20
2019-06-15T22:40:16.395Z,19.90
2019-06-15T22:42:43.763Z,19.90
2019-06-15T22:45:11.934Z,19.70
2019-06-15T22:47:39.846Z,19.70
2019-06-15T22:50:08.043Z,19.70
2019-06-15T22:52:36.579Z,19.50
2019-06-15T22:55:06.039Z,19.60
2019-06-15T22:57:36.869Z,19.50
2019-06-15T23:00:07.392Z,19.60
2019-06-15T23:02:34.100Z,19.40
2019-06-15T23:05:02.376Z,19.60
2019-06-15T23:07:30.289Z,19.60
2019-06-15T23:09:58.256Z,19.60
2019-06-15T23:12:26.188Z,19.70
2019-06-15T23:14:55.994Z,19.70
2019-06-15T23:17:24.005Z,19.90
2019-06-15T23:19:57.009Z,19.70
2019-06-15T23:22:24.766Z,19.80
2019-06-15T23:24:52.704Z,19.60
2019-06-15T23:27:20.606Z,19.60
2019-06-15T23:29:48.507Z,19.70
2019-06-15T23:32:16.975Z,19.60
2019-06-15T23:34:46.308Z,19.60
2019-06-15T23:37:15.909Z,19.60
2019-06-15T23:39:56.133Z,19.50
2019-06-15T23:42:23.922Z,19.40
2019-06-15T23:44:51.891Z,19.30
2019-06-15T23:47:19.824Z,19.50
2019-06-15T23:49:48.031Z,18.80
2019-06-15T23:52:16.003Z,18.90
2019-06-15T23:54:46.347Z,18.80
2019-06-15T23:57:13.602Z,18.80
2019-06-15T23:59:41.506Z,18.80
